Other Surface Observations
Issued by NWS Missoula, MT

Home | Current Version | Previous Version | Text Only | Print | Product List | Glossary On
Versions: 1 2 3 4 5 6 7 8 9 10 11 12 13 14 15 16 17 18 19 20 21 22 23 24 25 26 27 28 29 30 31 32 33 34 35 36 37 38 39 40 41 42 43 44 45 46 47 48 49 50
500
SXUS55 KMSO 251703
OSOMSO
MONTANA AWOS SUMMARY
NATIONAL WEATHER SERVICE MISSOULA MT
1103 AM MDT THU MAY 25 2017

Montana AWOS Reports

LAUREL      |K6S8 251655Z AUTO 25011G19KT 40SM 11/02 A2969 RMK AO1 T01060017
ROUNDUP     |KRPX 251655Z AUTO 27024G30KT 40SM 12/03 A2955 RMK AO1 T01220028
EKALAKA     |K97M 251655Z AUTO 27014G19KT 40SM 14/M01 A2954 RMK AO1 T01391005
SCOBEY      |K9S2 251655Z AUTO 25017G24KT 40SM 13/02 A2933 RMK AO1 T01330022




USA.gov is the U.S. government's official web portal to all federal, state and local government web resources and services.